Time;durP1;ratioP1;P1;durP2;ratioP2;P2;SDS_P1;SDS_P2;PMS_P1;PMS_P2;Temp;Humidity;BMP_temperature;BMP_pressure;BME280_temperature;BME280_humidity;BME280_pressure;Samples;Min_cycle;Max_cycle;Signal;HPM_P1;HPM_P2
2021/01/13 00:00:44;;;;;;;0.30;0.30;;;1.40;99.90;;;;;;4998505;28;20178;-70
2021/01/13 00:03:10;;;;;;;0.30;0.30;;;1.40;99.90;;;;;;5013932;28;20244;-69
2021/01/13 00:05:40;;;;;;;0.30;0.30;;;1.50;99.90;;;;;;5012389;28;20259;-71
2021/01/13 00:08:05;;;;;;;0.30;0.30;;;1.50;99.90;;;;;;5013900;28;20473;-69
2021/01/13 00:10:31;;;;;;;0.40;0.40;;;1.60;99.90;;;;;;5009787;28;20555;-70
2021/01/13 00:12:57;;;;;;;0.40;0.40;;;1.60;99.90;;;;;;4994296;28;20648;-70
2021/01/13 00:15:22;;;;;;;0.30;0.30;;;1.70;99.90;;;;;;5004223;28;20261;-70
2021/01/13 00:17:49;;;;;;;0.33;0.33;;;1.80;99.90;;;;;;5008199;28;20658;-70
2021/01/13 00:20:15;;;;;;;0.30;0.30;;;1.80;99.90;;;;;;4994129;28;20780;-71
2021/01/13 00:22:41;;;;;;;0.80;0.70;;;1.90;99.90;;;;;;4994134;28;20202;-68
2021/01/13 00:25:07;;;;;;;0.70;0.70;;;2.00;99.90;;;;;;4994134;28;20186;-71
2021/01/13 00:27:33;;;;;;;0.30;0.30;;;2.00;99.90;;;;;;5008449;28;20607;-71
2021/01/13 00:29:59;;;;;;;0.57;0.57;;;2.00;99.90;;;;;;5003085;28;20190;-71
2021/01/13 00:32:25;;;;;;;0.30;0.30;;;2.00;99.90;;;;;;5007536;28;20195;-69
2021/01/13 00:34:50;;;;;;;0.93;0.93;;;2.00;99.90;;;;;;5014048;28;20527;-70
2021/01/13 00:37:16;;;;;;;0.30;0.30;;;2.00;99.90;;;;;;5000303;28;20175;-70
2021/01/13 00:39:42;;;;;;;0.30;0.30;;;2.00;99.90;;;;;;4994326;28;20179;-71
2021/01/13 00:42:08;;;;;;;0.30;0.30;;;2.10;99.90;;;;;;5002956;28;20578;-71
2021/01/13 00:44:33;;;;;;;0.30;0.30;;;2.10;99.90;;;;;;5013611;28;20170;-71
2021/01/13 00:46:59;;;;;;;0.40;0.40;;;2.10;99.90;;;;;;5002766;28;21010;-71
2021/01/13 00:49:25;;;;;;;0.30;0.30;;;2.20;99.90;;;;;;4993850;28;20207;-71
2021/01/13 00:51:50;;;;;;;1.47;1.33;;;2.20;99.90;;;;;;5001729;28;20675;-71
2021/01/13 00:54:16;;;;;;;0.40;0.40;;;2.20;99.90;;;;;;5013501;28;20175;-70
2021/01/13 00:56:47;;;;;;;0.30;0.30;;;2.30;99.90;;;;;;5011891;28;20650;-71
2021/01/13 00:59:13;;;;;;;0.82;0.82;;;2.30;99.90;;;;;;5014206;28;20216;-69
2021/01/13 01:01:40;;;;;;;0.30;0.30;;;2.40;99.90;;;;;;5010492;28;20231;-69
2021/01/13 01:04:07;;;;;;;0.30;0.30;;;2.30;99.90;;;;;;4997941;28;20663;-70
2021/01/13 01:06:33;;;;;;;0.30;0.30;;;2.30;99.90;;;;;;5002221;28;20193;-70
2021/01/13 01:08:59;;;;;;;0.60;0.60;;;2.30;99.90;;;;;;5017175;28;20194;-71
2021/01/13 01:11:28;;;;;;;0.30;0.30;;;2.40;99.90;;;;;;5013154;28;20198;-70
2021/01/13 01:13:53;;;;;;;0.30;0.30;;;2.40;99.90;;;;;;4997400;28;20406;-71
2021/01/13 01:16:19;;;;;;;0.30;0.30;;;2.40;99.90;;;;;;4999830;28;20175;-70
2021/01/13 01:18:45;;;;;;;0.30;0.30;;;2.40;99.90;;;;;;5016870;28;20179;-71
2021/01/13 01:21:11;;;;;;;0.30;0.30;;;2.50;99.90;;;;;;5013793;28;20206;-69
2021/01/13 01:23:37;;;;;;;0.32;0.32;;;2.50;99.90;;;;;;4996213;28;20262;-70
2021/01/13 01:26:07;;;;;;;0.40;0.40;;;2.50;99.90;;;;;;4997431;28;20719;-70
2021/01/13 01:28:33;;;;;;;0.30;0.30;;;2.50;99.90;;;;;;5016906;28;20195;-69
2021/01/13 01:30:58;;;;;;;0.30;0.30;;;2.50;99.90;;;;;;5013413;28;20175;-69
2021/01/13 01:33:24;;;;;;;0.60;0.60;;;2.50;99.90;;;;;;5014842;28;20639;-71
2021/01/13 01:35:51;;;;;;;0.30;0.30;;;2.50;99.90;;;;;;5006771;28;20682;-71
2021/01/13 01:38:17;;;;;;;0.30;0.30;;;2.50;99.90;;;;;;4997231;28;20210;-68
2021/01/13 01:40:42;;;;;;;0.30;0.30;;;2.50;99.90;;;;;;4996484;28;20237;-71
2021/01/13 01:43:09;;;;;;;0.63;0.63;;;2.50;99.90;;;;;;4998368;28;20191;-69
2021/01/13 01:45:35;;;;;;;0.30;0.30;;;2.60;99.90;;;;;;5006648;28;20183;-70
2021/01/13 01:48:15;;;;;;;0.30;0.30;;;2.50;99.90;;;;;;5018350;28;20671;-70
2021/01/13 01:50:46;;;;;;;0.30;0.30;;;2.60;99.90;;;;;;5009234;28;20190;-70
2021/01/13 01:53:15;;;;;;;0.30;0.30;;;2.60;99.90;;;;;;4997174;28;20187;-69
2021/01/13 01:56:08;;;;;;;0.30;0.30;;;2.60;99.90;;;;;;5002907;28;20171;-69
2021/01/13 01:58:34;;;;;;;0.40;0.40;;;2.60;99.90;;;;;;5015011;28;20178;-69
2021/01/13 02:01:01;;;;;;;0.30;0.30;;;2.70;99.90;;;;;;5005199;28;20214;-69
2021/01/13 02:03:47;;;;;;;0.30;0.20;;;2.70;99.90;;;;;;4996747;28;20434;-70
2021/01/13 02:06:17;;;;;;;0.30;0.30;;;2.70;99.90;;;;;;4997626;28;20579;-68
2021/01/13 02:08:45;;;;;;;0.30;0.30;;;2.70;99.90;;;;;;4996507;28;20529;-70
2021/01/13 02:11:18;;;;;;;0.30;0.30;;;2.70;99.90;;;;;;5002688;28;20246;-70
2021/01/13 02:13:48;;;;;;;0.30;0.30;;;2.70;99.90;;;;;;4996557;28;20233;-69
2021/01/13 02:16:18;;;;;;;0.30;0.30;;;2.70;99.90;;;;;;5006188;28;20170;-68
2021/01/13 02:18:48;;;;;;;0.30;0.30;;;2.80;99.90;;;;;;5014480;28;20513;-69
2021/01/13 02:21:21;;;;;;;0.30;0.30;;;2.80;99.90;;;;;;5003655;28;20199;-70
2021/01/13 02:23:49;;;;;;;0.30;0.30;;;2.80;99.90;;;;;;4996376;28;20167;-71
2021/01/13 02:26:33;;;;;;;0.30;0.30;;;2.80;99.90;;;;;;5007349;28;20186;-69
2021/01/13 02:29:47;;;;;;;0.30;0.28;;;2.80;99.90;;;;;;5014880;28;20208;-69
2021/01/13 02:32:25;;;;;;;0.30;0.30;;;2.80;99.90;;;;;;5002469;28;20206;-70
2021/01/13 02:35:04;;;;;;;0.30;0.30;;;2.80;99.90;;;;;;5009850;28;20628;-69
2021/01/13 02:37:39;;;;;;;0.40;0.40;;;2.80;99.90;;;;;;4996231;28;20179;-68
2021/01/13 02:40:27;;;;;;;0.30;0.30;;;2.80;99.90;;;;;;5001398;28;20174;-70
2021/01/13 02:43:09;;;;;;;0.30;0.30;;;2.80;99.90;;;;;;5015588;28;20637;-69
2021/01/13 02:45:41;;;;;;;0.30;0.30;;;2.80;99.90;;;;;;5002932;28;20264;-68
2021/01/13 02:48:14;;;;;;;0.52;0.52;;;2.90;99.90;;;;;;5002175;28;20198;-69
2021/01/13 02:50:43;;;;;;;0.40;0.40;;;2.90;99.90;;;;;;5007508;28;20167;-68
2021/01/13 02:53:09;;;;;;;0.30;0.30;;;2.90;99.90;;;;;;5000651;28;20186;-69
2021/01/13 02:55:39;;;;;;;0.30;0.30;;;2.90;99.90;;;;;;5015519;28;20217;-69
2021/01/13 02:58:06;;;;;;;0.30;0.30;;;2.90;99.90;;;;;;5009331;28;20167;-69
2021/01/13 03:00:32;;;;;;;0.30;0.30;;;2.90;99.90;;;;;;4995241;28;20184;-70
2021/01/13 03:03:01;;;;;;;0.30;0.30;;;2.90;99.90;;;;;;4998450;28;20194;-68
2021/01/13 03:05:28;;;;;;;0.30;0.30;;;2.90;99.90;;;;;;5015107;28;20206;-69
2021/01/13 03:07:56;;;;;;;0.30;0.30;;;2.90;99.90;;;;;;5009756;28;20203;-68
2021/01/13 03:10:25;;;;;;;0.40;0.40;;;2.90;99.90;;;;;;4995112;28;20187;-69
2021/01/13 03:13:01;;;;;;;0.30;0.30;;;2.90;99.90;;;;;;4996913;28;20194;-68
2021/01/13 03:15:28;;;;;;;0.30;0.30;;;2.90;99.90;;;;;;5014978;28;20197;-69
2021/01/13 03:18:07;;;;;;;0.40;0.40;;;2.90;99.90;;;;;;5012032;28;20221;-70
2021/01/13 03:21:02;;;;;;;0.30;0.30;;;2.90;99.90;;;;;;4994856;28;20205;-69
2021/01/13 03:23:44;;;;;;;0.30;0.30;;;3.00;99.90;;;;;;5001647;28;20167;-70
2021/01/13 03:26:16;;;;;;;0.30;0.30;;;3.00;99.90;;;;;;5014919;28;20189;-69
2021/01/13 03:28:43;;;;;;;2.08;1.95;;;2.90;99.90;;;;;;5005614;28;20195;-69
2021/01/13 03:31:16;;;;;;;0.40;0.40;;;2.90;99.90;;;;;;4994665;28;20199;-68
2021/01/13 03:34:11;;;;;;;0.30;0.30;;;3.00;99.90;;;;;;5002939;28;20163;-68
2021/01/13 03:36:57;;;;;;;0.30;0.30;;;3.00;99.90;;;;;;5014736;28;20198;-68
2021/01/13 03:39:24;;;;;;;0.30;0.20;;;2.90;99.90;;;;;;4998865;28;20576;-69
2021/01/13 03:41:53;;;;;;;0.30;0.30;;;2.90;99.90;;;;;;4994324;28;20559;-70
2021/01/13 03:44:42;;;;;;;0.43;0.43;;;2.90;99.90;;;;;;4993370;28;20536;-70
2021/01/13 03:47:39;;;;;;;0.35;0.35;;;2.90;99.90;;;;;;4994644;28;20262;-68
2021/01/13 03:50:11;;;;;;;0.30;0.30;;;2.80;99.90;;;;;;4978653;28;20210;-69
2021/01/13 03:52:53;;;;;;;0.30;0.30;;;2.80;99.90;;;;;;4994923;28;20214;-70
2021/01/13 03:55:22;;;;;;;0.30;0.30;;;2.80;99.90;;;;;;4994717;28;20167;-69
2021/01/13 03:57:56;;;;;;;0.30;0.30;;;2.80;99.90;;;;;;4995860;28;20178;-69
2021/01/13 04:00:27;;;;;;;0.30;0.30;;;2.80;99.90;;;;;;4994093;28;20285;-69
2021/01/13 04:03:22;;;;;;;0.30;0.30;;;2.80;99.90;;;;;;4994564;28;20282;-69
2021/01/13 04:06:06;;;;;;;0.82;0.82;;;2.80;99.90;;;;;;4996049;28;20168;-70
2021/01/13 04:09:00;;;;;;;0.30;0.30;;;2.80;99.90;;;;;;4994401;28;20237;-69
2021/01/13 04:11:35;;;;;;;0.30;0.30;;;2.80;99.90;;;;;;4997926;28;20249;-68
2021/01/13 04:14:02;;;;;;;0.30;0.30;;;2.80;99.90;;;;;;5002433;28;20178;-68
2021/01/13 04:16:35;;;;;;;0.30;0.30;;;2.80;99.90;;;;;;5003585;28;20454;-70
2021/01/13 04:19:02;;;;;;;0.40;0.40;;;2.80;99.90;;;;;;5013984;28;20170;-69
2021/01/13 04:21:28;;;;;;;0.30;0.30;;;2.70;99.90;;;;;;5002887;28;20202;-69
2021/01/13 04:23:57;;;;;;;0.30;0.30;;;2.70;99.90;;;;;;4994281;28;20186;-67
2021/01/13 04:26:23;;;;;;;0.30;0.30;;;2.70;99.90;;;;;;4992787;28;20261;-70
2021/01/13 04:28:49;;;;;;;0.30;0.30;;;2.70;99.90;;;;;;4995294;28;20239;-69
2021/01/13 04:31:15;;;;;;;0.30;0.30;;;2.70;99.90;;;;;;5013271;28;20438;-70
2021/01/13 04:33:41;;;;;;;0.30;0.30;;;2.70;99.90;;;;;;5013307;28;20409;-71
2021/01/13 04:36:07;;;;;;;0.30;0.30;;;2.60;99.90;;;;;;4999871;28;20410;-69
2021/01/13 04:38:35;;;;;;;0.30;0.30;;;2.60;99.90;;;;;;5013638;28;20409;-67
2021/01/13 04:41:11;;;;;;;0.30;0.30;;;2.60;99.90;;;;;;4993826;28;20283;-69
2021/01/13 04:43:56;;;;;;;0.40;0.40;;;2.60;99.90;;;;;;4994151;28;20253;-68
2021/01/13 04:46:25;;;;;;;0.30;0.30;;;2.60;99.90;;;;;;4994333;28;20180;-69
2021/01/13 04:48:59;;;;;;;0.30;0.30;;;2.60;99.90;;;;;;4994818;28;20198;-70
2021/01/13 04:51:24;;;;;;;0.30;0.30;;;2.50;99.90;;;;;;5011918;28;20678;-69
2021/01/13 04:53:53;;;;;;;0.30;0.30;;;2.50;99.90;;;;;;5012645;28;20260;-69
2021/01/13 04:56:22;;;;;;;0.30;0.30;;;2.50;99.90;;;;;;5013081;28;20181;-70
2021/01/13 04:59:12;;;;;;;0.35;0.35;;;2.50;99.90;;;;;;5013152;28;20205;-68
2021/01/13 05:02:03;;;;;;;0.30;0.30;;;2.50;99.90;;;;;;4993285;28;20187;-68
2021/01/13 05:04:47;;;;;;;1.15;0.73;;;2.50;99.90;;;;;;5005744;28;20175;-68
2021/01/13 05:07:28;;;;;;;0.30;0.30;;;2.50;99.90;;;;;;4993814;28;20168;-69
2021/01/13 05:10:21;;;;;;;0.30;0.30;;;2.50;99.90;;;;;;5001876;28;20205;-69
2021/01/13 05:12:52;;;;;;;0.40;0.40;;;2.50;99.90;;;;;;5007172;28;20246;-69
2021/01/13 05:15:32;;;;;;;0.30;0.30;;;2.50;99.90;;;;;;5009444;28;20254;-68
2021/01/13 05:17:59;;;;;;;0.80;0.80;;;2.50;99.90;;;;;;5013203;28;20181;-69
2021/01/13 05:20:30;;;;;;;0.30;0.30;;;2.40;99.90;;;;;;5001078;28;20178;-70
2021/01/13 05:22:57;;;;;;;0.30;0.30;;;2.40;99.90;;;;;;4993819;28;20587;-68
2021/01/13 05:25:44;;;;;;;0.30;0.30;;;2.50;99.90;;;;;;5001868;28;20163;-68
2021/01/13 05:28:34;;;;;;;0.30;0.30;;;2.50;99.90;;;;;;4995404;28;20684;-70
2021/01/13 05:31:00;;;;;;;0.30;0.30;;;2.40;99.90;;;;;;5007930;28;20598;-69
2021/01/13 05:33:32;;;;;;;0.30;0.30;;;2.40;99.90;;;;;;5012408;28;20171;-70
2021/01/13 05:36:01;;;;;;;0.75;0.75;;;2.40;99.90;;;;;;4998462;28;20814;-69
2021/01/13 05:38:54;;;;;;;0.30;0.30;;;2.40;99.90;;;;;;4993569;28;20172;-68
2021/01/13 05:41:20;;;;;;;0.55;0.55;;;2.40;99.90;;;;;;4992779;28;20629;-70
2021/01/13 05:43:48;;;;;;;0.30;0.30;;;2.30;99.90;;;;;;4993567;28;20207;-68
2021/01/13 05:46:19;;;;;;;0.30;0.30;;;2.20;99.90;;;;;;5014461;28;20237;-69
2021/01/13 05:48:49;;;;;;;0.30;0.30;;;2.20;99.90;;;;;;5016510;28;20286;-70
2021/01/13 05:51:15;;;;;;;0.30;0.30;;;2.10;99.90;;;;;;4997941;28;20253;-69
2021/01/13 05:53:51;;;;;;;0.30;0.30;;;2.10;99.90;;;;;;4997078;28;20567;-68
2021/01/13 05:56:21;;;;;;;0.30;0.30;;;2.00;99.90;;;;;;5015351;28;20257;-68
2021/01/13 05:58:47;;;;;;;0.30;0.30;;;1.90;99.90;;;;;;5021187;28;20167;-67
2021/01/13 06:01:53;;;;;;;0.30;0.30;;;1.90;99.90;;;;;;4998175;28;20203;-70
2021/01/13 06:04:21;;;;;;;0.30;0.30;;;1.80;99.90;;;;;;4998805;28;20187;-69
2021/01/13 06:07:07;;;;;;;0.60;0.60;;;1.70;99.90;;;;;;5014321;28;20186;-69
2021/01/13 06:09:43;;;;;;;0.30;0.30;;;1.70;99.90;;;;;;5000674;28;20547;-70
2021/01/13 06:12:19;;;;;;;0.30;0.30;;;1.60;99.90;;;;;;4994754;28;20197;-67
2021/01/13 06:14:52;;;;;;;2.95;2.63;;;1.60;99.90;;;;;;5004442;28;20174;-69
2021/01/13 06:17:18;;;;;;;0.35;0.35;;;1.60;99.90;;;;;;5014739;28;20179;-69
2021/01/13 06:19:54;;;;;;;0.30;0.30;;;1.50;99.90;;;;;;5007178;28;20268;-68
2021/01/13 06:22:33;;;;;;;0.68;0.68;;;1.50;99.90;;;;;;4996275;28;20192;-70
2021/01/13 06:25:02;;;;;;;1.17;1.15;;;1.50;99.90;;;;;;5005404;28;20651;-67
2021/01/13 06:27:46;;;;;;;0.30;0.30;;;1.50;99.90;;;;;;5015618;28;20177;-68
2021/01/13 06:30:21;;;;;;;0.30;0.30;;;1.50;99.90;;;;;;5010786;28;20243;-67
2021/01/13 06:32:53;;;;;;;0.30;0.30;;;1.50;99.90;;;;;;5014928;28;20197;-70
2021/01/13 06:35:40;;;;;;;0.30;0.30;;;1.50;99.90;;;;;;5012543;28;20815;-69
2021/01/13 06:38:29;;;;;;;0.30;0.30;;;1.40;99.90;;;;;;5014365;28;20179;-69
2021/01/13 06:40:58;;;;;;;0.30;0.30;;;1.50;99.90;;;;;;4997600;28;20621;-69
2021/01/13 06:43:24;;;;;;;0.30;0.30;;;1.40;99.90;;;;;;4995863;28;20167;-69
2021/01/13 06:45:50;;;;;;;0.30;0.30;;;1.40;99.90;;;;;;5010581;28;20183;-68
2021/01/13 06:48:29;;;;;;;0.30;0.30;;;1.40;99.90;;;;;;5014041;28;20208;-69
2021/01/13 06:50:59;;;;;;;0.30;0.30;;;1.40;99.90;;;;;;5014230;28;20531;-69
2021/01/13 06:53:36;;;;;;;0.30;0.30;;;1.40;99.90;;;;;;5015424;28;20504;-69
2021/01/13 06:56:15;;;;;;;0.30;0.30;;;1.40;99.90;;;;;;4997012;28;20292;-70
2021/01/13 06:59:00;;;;;;;0.30;0.30;;;1.30;99.90;;;;;;4994377;28;20190;-68
2021/01/13 07:01:26;;;;;;;0.30;0.30;;;1.30;99.90;;;;;;4997264;28;20198;-68
2021/01/13 07:04:04;;;;;;;0.30;0.30;;;1.30;99.90;;;;;;4996588;28;20214;-70
2021/01/13 07:06:31;;;;;;;0.30;0.30;;;1.30;99.90;;;;;;4995647;28;20575;-70
2021/01/13 07:08:57;;;;;;;0.30;0.30;;;1.20;99.90;;;;;;5005231;28;20278;-71
2021/01/13 07:11:25;;;;;;;0.30;0.30;;;1.30;99.90;;;;;;5012754;28;20217;-70
2021/01/13 07:13:55;;;;;;;0.30;0.30;;;1.30;99.90;;;;;;5011758;28;20205;-68
2021/01/13 07:16:25;;;;;;;0.30;0.30;;;1.30;99.90;;;;;;5013443;28;20192;-70
2021/01/13 07:18:51;;;;;;;0.30;0.30;;;1.30;99.90;;;;;;5013849;28;20664;-72
2021/01/13 07:21:17;;;;;;;0.30;0.30;;;1.30;99.90;;;;;;5014270;28;20311;-69
2021/01/13 07:23:44;;;;;;;0.50;0.50;;;1.30;99.90;;;;;;5011413;28;20462;-71
2021/01/13 07:26:12;;;;;;;0.40;0.40;;;1.30;99.90;;;;;;5013259;28;20195;-68
2021/01/13 07:28:38;;;;;;;0.30;0.30;;;1.30;99.90;;;;;;5001502;28;20210;-71
2021/01/13 07:31:05;;;;;;;0.30;0.30;;;1.30;99.90;;;;;;4994316;28;20179;-71
2021/01/13 07:33:36;;;;;;;0.30;0.30;;;1.30;99.90;;;;;;4993537;28;20670;-69
2021/01/13 07:36:03;;;;;;;0.30;0.30;;;1.30;99.90;;;;;;4993640;28;20160;-70
2021/01/13 07:38:32;;;;;;;0.30;0.30;;;1.30;99.90;;;;;;4993443;28;20175;-69
2021/01/13 07:41:04;;;;;;;0.40;0.40;;;1.30;99.90;;;;;;5010677;28;20269;-69
2021/01/13 07:43:57;;;;;;;0.30;0.30;;;1.30;99.90;;;;;;5012793;28;20201;-69
2021/01/13 07:46:33;;;;;;;0.77;0.77;;;1.40;99.90;;;;;;5001064;28;20564;-71
2021/01/13 07:49:24;;;;;;;0.50;0.50;;;1.40;99.90;;;;;;4994178;28;20663;-70
2021/01/13 07:51:54;;;;;;;0.30;0.30;;;1.50;99.90;;;;;;4994474;28;20196;-69
2021/01/13 07:54:30;;;;;;;0.30;0.30;;;1.60;99.90;;;;;;4994673;28;20169;-70
2021/01/13 07:56:58;;;;;;;0.40;0.40;;;1.60;99.90;;;;;;4994505;28;20534;-69
2021/01/13 07:59:52;;;;;;;0.38;0.38;;;1.60;99.90;;;;;;5009601;28;20210;-69
2021/01/13 08:02:43;;;;;;;0.30;0.30;;;1.70;99.90;;;;;;5006649;28;20210;-69
2021/01/13 08:05:34;;;;;;;0.30;0.30;;;1.80;99.90;;;;;;5012722;28;20666;-68
2021/01/13 08:08:07;;;;;;;3.15;2.85;;;2.00;99.90;;;;;;4996946;28;20179;-69
2021/01/13 08:10:38;;;;;;;0.30;0.30;;;2.20;99.90;;;;;;4993823;28;20167;-69
2021/01/13 08:13:27;;;;;;;0.30;0.30;;;2.30;99.90;;;;;;4993736;28;20656;-70
2021/01/13 08:16:24;;;;;;;0.30;0.30;;;2.50;99.90;;;;;;5010412;28;20183;-70
2021/01/13 08:19:44;;;;;;;0.30;0.30;;;2.60;99.90;;;;;;5013096;28;20233;-69
2021/01/13 08:22:20;;;;;;;0.30;0.30;;;2.80;99.90;;;;;;4934534;29;20205;-70
2021/01/13 08:24:50;;;;;;;0.40;0.40;;;2.90;99.90;;;;;;4917571;29;20184;-70
2021/01/13 08:27:17;;;;;;;0.30;0.30;;;2.90;99.90;;;;;;4933876;29;20181;-69
2021/01/13 08:29:53;;;;;;;0.30;0.30;;;3.00;99.90;;;;;;4917850;29;20221;-69
2021/01/13 08:32:20;;;;;;;0.30;0.30;;;3.10;99.90;;;;;;4933209;29;20201;-70
2021/01/13 08:34:49;;;;;;;0.30;0.30;;;3.40;99.90;;;;;;4921650;29;20220;-70
2021/01/13 08:37:15;;;;;;;1.77;1.67;;;3.80;99.90;;;;;;4933958;29;20185;-70
2021/01/13 08:39:44;;;;;;;0.82;0.50;;;4.40;99.90;;;;;;4934210;29;20181;-70
2021/01/13 08:42:29;;;;;;;0.30;0.30;;;4.50;99.90;;;;;;4933873;29;20590;-70
2021/01/13 08:44:56;;;;;;;0.30;0.30;;;4.40;99.90;;;;;;4926379;29;20650;-69
2021/01/13 08:47:26;;;;;;;0.38;0.38;;;4.30;99.90;;;;;;4949849;28;20195;-69
2021/01/13 08:50:09;;;;;;;0.30;0.30;;;4.20;99.90;;;;;;4993631;28;20215;-70
2021/01/13 08:52:50;;;;;;;0.30;0.30;;;4.20;99.90;;;;;;4994000;28;20529;-69
2021/01/13 08:55:16;;;;;;;0.30;0.20;;;4.10;99.90;;;;;;4992662;28;20171;-70
2021/01/13 08:57:52;;;;;;;0.30;0.30;;;4.00;99.90;;;;;;4993929;28;20640;-70
2021/01/13 09:00:20;;;;;;;0.30;0.30;;;3.90;99.90;;;;;;4993315;28;20237;-70
2021/01/13 09:03:03;;;;;;;0.63;0.63;;;3.90;99.90;;;;;;4994108;28;20187;-69
2021/01/13 09:05:39;;;;;;;0.30;0.30;;;4.00;99.90;;;;;;5005257;28;20166;-70
2021/01/13 09:08:08;;;;;;;0.60;0.60;;;4.10;99.90;;;;;;5013458;28;20166;-69
2021/01/13 09:10:51;;;;;;;0.30;0.30;;;4.10;99.90;;;;;;5011711;28;20166;-69
2021/01/13 09:13:40;;;;;;;0.30;0.30;;;4.20;99.90;;;;;;5004744;28;20172;-70
2021/01/13 09:16:24;;;;;;;0.40;0.40;;;4.90;99.90;;;;;;5015970;28;20239;-69
2021/01/13 09:18:59;;;;;;;0.30;0.30;;;5.70;99.90;;;;;;4993829;28;20556;-68
2021/01/13 09:21:32;;;;;;;0.30;0.30;;;6.30;99.90;;;;;;4995462;28;20685;-69
2021/01/13 09:23:59;;;;;;;0.30;0.30;;;6.60;99.90;;;;;;5009504;28;20182;-69
2021/01/13 09:26:33;;;;;;;0.30;0.30;;;6.70;99.90;;;;;;5016926;28;20174;-69
2021/01/13 09:29:00;;;;;;;0.30;0.25;;;6.80;99.90;;;;;;5016985;28;20201;-70
2021/01/13 09:31:26;;;;;;;0.30;0.20;;;7.20;99.90;;;;;;5011968;28;20188;-69
2021/01/13 09:33:52;;;;;;;0.30;0.20;;;7.80;99.90;;;;;;4997117;28;20226;-70
2021/01/13 09:36:20;;;;;;;0.30;0.30;;;8.30;99.90;;;;;;4997152;28;20174;-69
2021/01/13 09:38:48;;;;;;;0.35;0.35;;;8.70;99.90;;;;;;4997075;28;20211;-71
2021/01/13 09:41:27;;;;;;;0.30;0.27;;;9.00;99.90;;;;;;4998519;28;20215;-70
2021/01/13 09:44:13;;;;;;;0.30;0.20;;;9.70;99.90;;;;;;5016800;28;20443;-70
2021/01/13 09:46:40;;;;;;;0.30;0.30;;;10.20;98.90;;;;;;5016431;28;20785;-70
2021/01/13 09:49:11;;;;;;;0.30;0.23;;;10.70;97.80;;;;;;5016439;28;20449;-68
2021/01/13 09:51:38;;;;;;;0.30;0.30;;;11.20;97.50;;;;;;5010667;28;20453;-71
2021/01/13 09:54:05;;;;;;;0.30;0.30;;;11.50;96.20;;;;;;4996843;28;20402;-70
2021/01/13 09:56:32;;;;;;;0.30;0.30;;;11.30;94.50;;;;;;4996702;28;20458;-69
2021/01/13 09:59:01;;;;;;;0.40;0.40;;;10.80;94.60;;;;;;4996686;28;20410;-69
2021/01/13 10:01:29;;;;;;;0.30;0.30;;;10.00;94.60;;;;;;5012283;28;20455;-69
2021/01/13 10:03:56;;;;;;;0.30;0.25;;;9.20;96.00;;;;;;5016396;28;20492;-68
2021/01/13 10:06:23;;;;;;;0.75;0.75;;;8.40;97.30;;;;;;5016361;28;20183;-70
2021/01/13 10:08:51;;;;;;;0.30;0.30;;;7.70;98.40;;;;;;5014977;28;20199;-70
2021/01/13 10:11:19;;;;;;;0.30;0.30;;;7.10;99.50;;;;;;5001519;28;20557;-69
2021/01/13 10:13:52;;;;;;;0.30;0.30;;;6.70;99.90;;;;;;4996375;28;20561;-69
2021/01/13 10:16:17;;;;;;;0.40;0.40;;;6.30;99.90;;;;;;4996462;28;20226;-70
2021/01/13 10:19:00;;;;;;;0.30;0.30;;;6.10;99.90;;;;;;4996767;28;20568;-69
2021/01/13 10:21:35;;;;;;;0.30;0.30;;;5.90;99.90;;;;;;4995787;28;20215;-69
2021/01/13 10:24:06;;;;;;;0.30;0.30;;;5.80;99.90;;;;;;5002851;28;20172;-71
2021/01/13 10:26:40;;;;;;;0.30;0.30;;;5.80;99.90;;;;;;5005841;28;20706;-69
2021/01/13 10:29:08;;;;;;;0.57;0.57;;;5.60;99.90;;;;;;5003739;28;20200;-69
2021/01/13 10:31:34;;;;;;;0.30;0.30;;;5.40;99.90;;;;;;5001148;28;20227;-68
2021/01/13 10:34:01;;;;;;;0.30;0.30;;;5.40;99.90;;;;;;5001703;28;20172;-70
2021/01/13 10:36:31;;;;;;;0.30;0.30;;;5.30;99.90;;;;;;5003865;28;20699;-72
2021/01/13 10:39:04;;;;;;;0.30;0.30;;;5.30;99.90;;;;;;5004186;28;20179;-70
2021/01/13 10:41:35;;;;;;;0.30;0.30;;;5.30;99.90;;;;;;5004201;28;20599;-70
2021/01/13 10:44:10;;;;;;;0.30;0.30;;;5.30;99.90;;;;;;5004448;28;20194;-70
2021/01/13 10:47:01;;;;;;;0.30;0.30;;;5.40;99.90;;;;;;5003426;28;20195;-74
2021/01/13 10:49:33;;;;;;;0.30;0.30;;;5.40;99.90;;;;;;5005320;28;20195;-71
2021/01/13 10:52:11;;;;;;;0.30;0.30;;;5.50;99.90;;;;;;5003095;28;20192;-73
2021/01/13 10:54:40;;;;;;;0.30;0.30;;;5.50;99.90;;;;;;5005570;28;20174;-72
2021/01/13 10:57:07;;;;;;;0.30;0.30;;;5.60;99.90;;;;;;5003495;28;20180;-72
2021/01/13 10:59:34;;;;;;;0.30;0.30;;;5.70;99.90;;;;;;5004693;28;20173;-72
2021/01/13 11:02:05;;;;;;;0.30;0.30;;;5.80;99.90;;;;;;5003538;28;20195;-72
2021/01/13 11:04:45;;;;;;;0.30;0.30;;;5.90;99.90;;;;;;5002951;28;20541;-71
2021/01/13 11:07:16;;;;;;;0.30;0.30;;;5.90;99.90;;;;;;5002343;28;20259;-70
2021/01/13 11:09:49;;;;;;;0.30;0.30;;;5.80;99.90;;;;;;5002660;28;20274;-73
2021/01/13 11:12:24;;;;;;;0.30;0.30;;;5.80;99.90;;;;;;4998701;28;20226;-72
2021/01/13 11:14:51;;;;;;;0.30;0.30;;;5.80;99.90;;;;;;4994229;28;20188;-70
2021/01/13 11:17:19;;;;;;;0.30;0.30;;;5.90;99.90;;;;;;5006413;28;20534;-70
2021/01/13 11:20:00;;;;;;;0.30;0.30;;;5.90;99.90;;;;;;5014579;28;20627;-76
2021/01/13 11:22:44;;;;;;;0.30;0.30;;;5.90;99.90;;;;;;5013566;28;20206;-72
2021/01/13 11:25:27;;;;;;;0.30;0.30;;;6.00;99.90;;;;;;5003519;28;20174;-74
2021/01/13 11:27:58;;;;;;;0.30;0.30;;;5.90;99.90;;;;;;4995387;28;20177;-77
2021/01/13 11:30:24;;;;;;;0.50;0.50;;;5.90;99.90;;;;;;4994697;28;20195;-76
2021/01/13 11:32:54;;;;;;;0.30;0.30;;;6.00;99.90;;;;;;4995122;28;20197;-72
2021/01/13 11:35:49;;;;;;;0.68;0.68;;;6.00;99.90;;;;;;4995246;28;20179;-73
2021/01/13 11:38:58;;;;;;;0.30;0.30;;;6.10;99.90;;;;;;4995041;28;20258;-75
2021/01/13 11:41:42;;;;;;;0.30;0.30;;;6.20;99.90;;;;;;4994680;28;20649;-73
2021/01/13 11:45:00;;;;;;;0.30;0.30;;;6.20;99.90;;;;;;5008025;28;20182;-73
2021/01/13 11:47:34;;;;;;;0.30;0.30;;;6.30;99.90;;;;;;4947119;28;20522;-73
2021/01/13 11:50:11;;;;;;;0.68;0.60;;;6.30;99.90;;;;;;5012523;28;20213;-73
2021/01/13 11:52:41;;;;;;;0.30;0.30;;;6.20;99.90;;;;;;5011507;28;20200;-73
2021/01/13 11:55:08;;;;;;;0.30;0.30;;;6.10;99.90;;;;;;4994786;28;20165;-73
2021/01/13 11:57:34;;;;;;;0.30;0.30;;;6.10;99.90;;;;;;4994606;28;20175;-75
2021/01/13 12:00:19;;;;;;;0.30;0.30;;;6.10;99.90;;;;;;4993161;28;20296;-70
2021/01/13 12:02:53;;;;;;;0.30;0.30;;;6.10;99.90;;;;;;4995688;28;20510;-77
2021/01/13 12:05:24;;;;;;;0.30;0.30;;;6.10;99.90;;;;;;5014199;28;20265;-73
2021/01/13 12:08:09;;;;;;;0.30;0.30;;;6.10;99.90;;;;;;5014253;28;20200;-72
2021/01/13 12:10:42;;;;;;;0.30;0.30;;;6.20;99.90;;;;;;5013716;28;20171;-74
2021/01/13 12:13:15;;;;;;;0.50;0.50;;;6.30;99.90;;;;;;4995682;28;20256;-74
2021/01/13 12:15:50;;;;;;;0.30;0.30;;;6.30;99.90;;;;;;4994164;28;20181;-77
2021/01/13 12:18:42;;;;;;;0.30;0.30;;;6.40;99.90;;;;;;5000340;28;20174;-71
2021/01/13 12:21:14;;;;;;;0.30;0.30;;;6.40;99.90;;;;;;5011459;28;20656;-72
2021/01/13 12:23:46;;;;;;;0.30;0.30;;;6.40;99.90;;;;;;5013983;28;20256;-73
2021/01/13 12:26:24;;;;;;;0.30;0.30;;;6.30;99.90;;;;;;5012436;28;20271;-71
2021/01/13 12:28:55;;;;;;;0.30;0.30;;;6.30;99.90;;;;;;5013787;28;20256;-73
2021/01/13 12:31:22;;;;;;;0.30;0.30;;;6.20;99.90;;;;;;4993657;28;20531;-71
2021/01/13 12:33:56;;;;;;;0.30;0.30;;;6.20;99.90;;;;;;4992676;28;20523;-71
2021/01/13 12:36:27;;;;;;;0.30;0.30;;;6.20;99.90;;;;;;4994455;28;20199;-74
2021/01/13 12:38:57;;;;;;;0.30;0.30;;;6.20;99.90;;;;;;4994815;28;20227;-69
2021/01/13 12:41:28;;;;;;;0.30;0.30;;;6.10;99.90;;;;;;4993665;28;20251;-72
2021/01/13 12:43:55;;;;;;;0.30;0.30;;;6.00;99.90;;;;;;4994120;28;20200;-70
2021/01/13 12:46:29;;;;;;;0.30;0.30;;;6.00;99.90;;;;;;4994074;28;20536;-71
2021/01/13 12:48:56;;;;;;;0.30;0.30;;;6.00;99.90;;;;;;5007160;28;20203;-70
2021/01/13 12:51:22;;;;;;;0.30;0.30;;;6.10;99.90;;;;;;5011755;28;20199;-70
2021/01/13 12:53:47;;;;;;;0.30;0.30;;;6.00;99.90;;;;;;5014608;28;20632;-74
2021/01/13 12:56:28;;;;;;;0.30;0.20;;;6.00;99.90;;;;;;5016307;28;20174;-70
2021/01/13 12:58:55;;;;;;;0.30;0.30;;;6.00;99.90;;;;;;5004226;28;20434;-77
2021/01/13 13:01:21;;;;;;;0.30;0.20;;;6.00;99.90;;;;;;4996084;28;20210;-70
2021/01/13 13:03:47;;;;;;;0.30;0.30;;;5.90;99.90;;;;;;4997952;28;20176;-71
2021/01/13 13:06:32;;;;;;;0.30;0.30;;;6.10;99.90;;;;;;4997664;28;20495;-72
2021/01/13 13:09:00;;;;;;;0.30;0.25;;;6.00;99.90;;;;;;5010834;28;20224;-70
2021/01/13 13:11:30;;;;;;;0.30;0.30;;;6.10;99.90;;;;;;5016861;28;20187;-70
2021/01/13 13:13:56;;;;;;;0.30;0.30;;;6.10;99.90;;;;;;5016059;28;20524;-71
2021/01/13 13:16:22;;;;;;;0.30;0.30;;;6.00;99.90;;;;;;5015802;28;20193;-71
2021/01/13 13:18:55;;;;;;;0.30;0.30;;;6.00;99.90;;;;;;5004872;28;20250;-69
2021/01/13 13:21:23;;;;;;;0.30;0.30;;;6.00;99.90;;;;;;4997111;28;20194;-74
2021/01/13 13:23:49;;;;;;;0.30;0.20;;;6.00;99.90;;;;;;4997409;28;20193;-71
2021/01/13 13:26:16;;;;;;;0.30;0.30;;;5.90;99.90;;;;;;4996164;28;20186;-70
2021/01/13 13:28:42;;;;;;;0.30;0.30;;;5.80;99.90;;;;;;5007812;28;20206;-71